KBIX/BIX METAR and TAF weather

Enter ICAO airport designator
Station Type Date Time Source
KBIX METAR 2020/04/06 17:56 UTC NOAA

KBIX 061756Z AUTO 15010KT 10SM CLR 26/18 A3009 RMK AO2 SLP192 T02600179 10260 20161 58005


Station Type Date Time Source
KBIX Decoded METAR 2020/04/06 17:56 UTC NOAA

Keesler Air Force Base / Biloxi, MS, United States (KBIX) 30-25N 088-55W
Apr 06, 2020 - 01:56 PM EDT / 2020.04.06 1756 UTC
Wind: from the SSE (150 degrees) at 12 MPH (10 KT):0
Visibility: 10 mile(s):0
Sky conditions: clear
Temperature: 78.8 F (26.0 C)
Dew Point: 64.2 F (17.9 C)
Relative Humidity: 60%
Pressure (altimeter): 30.09 in. Hg (1018 hPa)
Pressure tendency: 0.01 inches (0.5 hPa) lower than three hours ago
ob: KBIX 061756Z AUTO 15010KT 10SM CLR 26/18 A3009 RMK AO2 SLP192 T02600179 10260 20161 58005
cycle: 18

Station Type Date Time Source
KBIX TAF 2020/04/06 18:09 UTC NOAA

TAF TAF KBIX 061800Z 0618/0724 18009KT 9999 SCT150 QNH3006INS
BECMG 0704/0705 21006KT 8000 BR SCT040 SCT080 BKN150 QNH3004INS
BECMG 0707/0708 15006KT 4800 BR SCT005 BKN050 OVC100 QNH3001INS
TEMPO 0708/0712 OVC005
BECMG 0713/0714 18009KT 9999 NSW FEW007 SCT020 BKN050 QNH3005INS
BECMG 0717/0718 21010G15KT 9999 VCSH SCT010 BKN050 QNH2999INS TX28/0620Z TN16/0711Z

Example: see airport list